createdAt,value
2018-12-06T00:02:21.049Z,2.67
2018-12-06T00:04:48.655Z,5.27
2018-12-06T00:07:16.279Z,7.50
2018-12-06T00:09:43.909Z,6.17
2018-12-06T00:12:11.528Z,5.40
2018-12-06T00:14:39.136Z,7.60
2018-12-06T00:17:06.777Z,7.97
2018-12-06T00:19:34.363Z,7.70
2018-12-06T00:22:01.995Z,5.13
2018-12-06T00:24:29.611Z,5.37
2018-12-06T00:26:57.370Z,4.20
2018-12-06T00:29:25.127Z,4.40
2018-12-06T00:31:52.767Z,13.80
2018-12-06T00:34:20.357Z,5.23
2018-12-06T00:36:47.983Z,6.03
2018-12-06T00:39:15.624Z,9.73
2018-12-06T00:41:43.317Z,5.07
2018-12-06T00:44:30.016Z,4.70
2018-12-06T00:46:57.672Z,4.70
2018-12-06T00:49:25.275Z,5.10
2018-12-06T00:51:52.829Z,5.47
2018-12-06T00:54:20.428Z,7.90
2018-12-06T00:56:48.014Z,2.90
2018-12-06T00:59:15.657Z,3.90
2018-12-06T01:01:43.367Z,2.30
2018-12-06T01:04:11.051Z,3.03
2018-12-06T01:06:38.620Z,4.90
2018-12-06T01:09:06.318Z,4.00
2018-12-06T01:11:33.900Z,2.60
2018-12-06T01:14:01.617Z,3.03
2018-12-06T01:16:29.216Z,2.63
2018-12-06T01:18:56.792Z,3.27
2018-12-06T01:21:24.413Z,16.43
2018-12-06T01:23:52.154Z,3.03
2018-12-06T01:26:19.747Z,4.13
2018-12-06T01:28:47.368Z,3.70
2018-12-06T01:31:15.072Z,5.30
2018-12-06T01:33:42.713Z,3.87
2018-12-06T01:36:10.309Z,2.30
2018-12-06T01:38:37.922Z,4.40
2018-12-06T01:41:05.559Z,2.57
2018-12-06T01:43:33.176Z,4.20
2018-12-06T01:46:00.757Z,2.57
2018-12-06T01:48:28.859Z,6.70
2018-12-06T01:50:56.454Z,2.93
2018-12-06T01:53:24.254Z,4.63
2018-12-06T01:55:51.815Z,2.67
2018-12-06T01:58:19.467Z,4.43
2018-12-06T02:00:47.047Z,2.03
2018-12-06T02:03:14.614Z,4.40
2018-12-06T02:05:42.202Z,5.13
2018-12-06T02:08:09.825Z,2.40
2018-12-06T02:10:37.486Z,5.00
2018-12-06T02:13:05.079Z,2.60
2018-12-06T02:15:32.717Z,1.70
2018-12-06T02:18:00.325Z,3.43
2018-12-06T02:20:27.936Z,3.50
2018-12-06T02:22:55.551Z,7.13
2018-12-06T02:25:23.224Z,4.87
2018-12-06T02:27:50.783Z,4.93
2018-12-06T02:30:18.450Z,2.13
2018-12-06T02:32:46.030Z,1.90
2018-12-06T02:35:13.648Z,3.10
2018-12-06T02:37:41.271Z,3.00
2018-12-06T02:40:09.042Z,2.50
2018-12-06T02:42:36.664Z,2.00
2018-12-06T02:45:04.469Z,3.90
2018-12-06T02:47:32.201Z,4.77
2018-12-06T02:49:59.802Z,3.57
2018-12-06T02:52:27.640Z,2.33
2018-12-06T02:54:55.281Z,2.10
2018-12-06T02:57:22.871Z,2.27
2018-12-06T02:59:50.559Z,3.70
2018-12-06T03:02:18.236Z,2.30
2018-12-06T03:04:45.855Z,2.70
2018-12-06T03:07:13.545Z,3.20
2018-12-06T03:09:41.188Z,2.50
2018-12-06T03:12:08.850Z,6.30
2018-12-06T03:14:36.456Z,2.10
2018-12-06T03:17:04.673Z,5.90
2018-12-06T03:19:32.283Z,3.73
2018-12-06T03:21:59.895Z,2.40
2018-12-06T03:24:27.676Z,2.00
2018-12-06T03:26:55.252Z,1.90
2018-12-06T03:29:22.843Z,2.00
2018-12-06T03:31:50.455Z,1.60
2018-12-06T03:34:18.200Z,2.53
2018-12-06T03:36:47.686Z,4.13
2018-12-06T03:39:15.444Z,2.30
2018-12-06T03:41:43.116Z,2.10
2018-12-06T03:44:10.712Z,1.93
2018-12-06T03:46:38.393Z,2.37
2018-12-06T03:49:05.995Z,2.40
2018-12-06T03:51:33.634Z,1.90
2018-12-06T03:54:01.383Z,1.93
2018-12-06T03:56:29.006Z,2.53
2018-12-06T03:58:56.568Z,2.20
2018-12-06T04:01:24.215Z,1.70
2018-12-06T04:03:51.813Z,1.87
2018-12-06T04:06:19.425Z,1.57
2018-12-06T04:08:47.107Z,1.83
2018-12-06T04:11:14.723Z,1.53
2018-12-06T04:13:42.497Z,1.60
2018-12-06T04:16:10.065Z,2.53
2018-12-06T04:18:37.688Z,1.60
2018-12-06T04:21:05.362Z,3.07
2018-12-06T04:23:32.981Z,13.97
2018-12-06T04:26:00.662Z,2.47
2018-12-06T04:28:28.320Z,2.50
2018-12-06T04:30:55.937Z,1.50
2018-12-06T04:33:23.580Z,2.23
2018-12-06T04:35:51.207Z,2.37
2018-12-06T04:38:18.908Z,1.37
2018-12-06T04:40:46.535Z,2.70
2018-12-06T04:43:14.182Z,2.00
2018-12-06T04:45:41.834Z,2.10
2018-12-06T04:48:09.428Z,1.73
2018-12-06T04:50:37.174Z,2.00
2018-12-06T04:53:04.765Z,3.03
2018-12-06T04:55:32.357Z,1.67
2018-12-06T04:57:59.966Z,2.93
2018-12-06T05:00:27.747Z,4.57
2018-12-06T05:02:55.423Z,1.87
2018-12-06T05:05:23.165Z,2.87
2018-12-06T05:07:50.881Z,2.50
2018-12-06T05:10:18.457Z,5.93
2018-12-06T05:12:46.057Z,1.87
2018-12-06T05:15:13.694Z,1.40
2018-12-06T05:17:41.356Z,3.77
2018-12-06T05:20:09.055Z,1.67
2018-12-06T05:22:36.648Z,1.97
2018-12-06T05:25:05.021Z,2.93
2018-12-06T05:27:32.700Z,7.00
2018-12-06T05:30:00.287Z,3.80
2018-12-06T05:32:27.967Z,7.43
2018-12-06T05:34:55.605Z,1.80
2018-12-06T05:37:23.229Z,2.23
2018-12-06T05:39:50.854Z,1.70
2018-12-06T05:42:18.491Z,5.90
2018-12-06T05:44:46.100Z,3.97
2018-12-06T05:47:13.725Z,1.83
2018-12-06T05:49:41.645Z,3.07
2018-12-06T05:52:09.411Z,2.30
2018-12-06T05:54:39.856Z,5.20
2018-12-06T05:57:07.565Z,5.17
2018-12-06T05:59:35.239Z,4.03
2018-12-06T06:02:02.852Z,2.53
2018-12-06T06:04:30.507Z,6.50
2018-12-06T06:07:01.309Z,1.87
2018-12-06T06:09:29.389Z,1.53
2018-12-06T06:11:56.975Z,2.30
2018-12-06T06:14:24.558Z,2.43
2018-12-06T06:16:52.484Z,2.27
2018-12-06T06:19:20.259Z,3.83
2018-12-06T06:21:48.013Z,3.73
2018-12-06T06:24:15.655Z,12.90
2018-12-06T06:26:43.335Z,6.43
2018-12-06T06:29:10.927Z,11.77
2018-12-06T06:31:38.508Z,6.30
2018-12-06T06:34:06.109Z,8.93
2018-12-06T06:36:33.728Z,3.10
2018-12-06T06:39:01.477Z,26.73
2018-12-06T06:41:29.117Z,20.07
2018-12-06T06:43:56.753Z,13.40
2018-12-06T06:46:24.431Z,21.30
2018-12-06T06:48:52.097Z,8.43
2018-12-06T06:51:19.842Z,11.43
2018-12-06T06:53:47.452Z,5.10
2018-12-06T06:56:15.338Z,7.10
2018-12-06T06:58:42.991Z,3.23
2018-12-06T07:01:10.639Z,3.97
2018-12-06T07:03:38.371Z,9.50
2018-12-06T07:06:05.996Z,5.67
2018-12-06T07:08:33.636Z,9.70
2018-12-06T07:11:01.388Z,12.50
2018-12-06T07:13:29.010Z,3.83
2018-12-06T07:15:56.652Z,4.17
2018-12-06T07:18:24.402Z,11.47
2018-12-06T07:20:51.995Z,9.23
2018-12-06T07:23:19.598Z,4.20
2018-12-06T07:25:47.237Z,15.67
2018-12-06T07:28:15.682Z,28.83
2018-12-06T07:30:43.372Z,11.00
2018-12-06T07:33:11.012Z,12.73
2018-12-06T07:35:38.658Z,6.20
2018-12-06T07:38:06.267Z,26.40
2018-12-06T07:40:33.984Z,9.70
2018-12-06T07:43:01.535Z,12.67
2018-12-06T07:45:29.145Z,17.63
2018-12-06T07:47:56.773Z,7.60
2018-12-06T07:50:24.363Z,9.67
2018-12-06T07:52:51.940Z,8.43
2018-12-06T07:55:19.701Z,16.53
2018-12-06T07:57:47.280Z,12.50
2018-12-06T08:00:14.832Z,12.97
2018-12-06T08:02:42.470Z,18.40
2018-12-06T08:05:10.067Z,9.63
2018-12-06T08:07:37.750Z,15.33
2018-12-06T08:10:06.350Z,8.53
2018-12-06T08:12:34.095Z,11.47
2018-12-06T08:15:01.750Z,16.93
2018-12-06T08:17:29.415Z,7.00
2018-12-06T08:19:57.123Z,11.33
2018-12-06T08:22:24.757Z,6.00
2018-12-06T08:24:54.645Z,16.53
2018-12-06T08:27:29.929Z,5.67
2018-12-06T08:29:57.637Z,10.60
2018-12-06T08:32:25.291Z,13.20
2018-12-06T08:34:53.016Z,7.43
2018-12-06T08:37:20.713Z,9.30
2018-12-06T08:39:48.350Z,8.77
2018-12-06T08:42:15.931Z,6.03
2018-12-06T08:44:58.733Z,15.47
2018-12-06T08:47:26.930Z,3.87
2018-12-06T08:49:54.609Z,10.20
2018-12-06T08:52:22.247Z,9.20
2018-12-06T08:54:50.038Z,6.67
2018-12-06T08:57:17.726Z,8.10
2018-12-06T08:59:45.395Z,7.13
2018-12-06T09:02:13.124Z,9.10
2018-12-06T09:04:40.775Z,7.23
2018-12-06T09:07:08.407Z,7.00
2018-12-06T09:09:36.033Z,4.60
2018-12-06T09:12:04.009Z,5.80
2018-12-06T09:14:31.672Z,7.50
2018-12-06T09:16:59.385Z,6.23
2018-12-06T09:19:27.013Z,3.90
2018-12-06T09:21:54.637Z,6.20
2018-12-06T09:27:14.661Z,14.70
2018-12-06T09:29:42.399Z,3.67
2018-12-06T09:32:10.157Z,6.37
2018-12-06T09:34:47.701Z,2.43
2018-12-06T09:37:15.361Z,4.60
2018-12-06T09:39:52.972Z,3.97
2018-12-06T09:42:20.672Z,9.33
2018-12-06T09:44:48.292Z,11.00
2018-12-06T09:47:15.927Z,7.60
2018-12-06T09:49:44.354Z,5.13
2018-12-06T09:52:12.004Z,4.07
2018-12-06T09:54:39.669Z,3.10
2018-12-06T09:57:07.308Z,4.53
2018-12-06T09:59:35.032Z,3.77
2018-12-06T10:02:02.676Z,7.80
2018-12-06T10:04:30.329Z,4.00
2018-12-06T10:06:58.074Z,5.93
2018-12-06T10:09:25.777Z,6.33
2018-12-06T10:11:53.479Z,2.70
2018-12-06T10:14:21.170Z,4.83
2018-12-06T10:16:48.821Z,5.07
2018-12-06T10:19:30.558Z,3.03
2018-12-06T10:21:58.318Z,3.33
2018-12-06T10:24:25.979Z,5.60
2018-12-06T10:26:53.623Z,6.43
2018-12-06T10:29:23.556Z,3.37
2018-12-06T10:31:51.408Z,4.00
2018-12-06T10:34:19.083Z,4.47
2018-12-06T10:36:46.771Z,3.57
2018-12-06T10:39:14.489Z,3.00
2018-12-06T10:41:46.870Z,3.70
2018-12-06T10:44:27.404Z,3.87
2018-12-06T10:46:55.135Z,4.10
2018-12-06T10:49:22.752Z,6.20
2018-12-06T10:51:50.461Z,2.80
2018-12-06T10:54:18.154Z,5.03
2018-12-06T10:56:45.748Z,2.93
2018-12-06T10:59:13.509Z,3.60
2018-12-06T11:01:47.110Z,3.33
2018-12-06T11:04:14.791Z,12.50
2018-12-06T11:06:42.430Z,15.07
2018-12-06T11:09:10.277Z,19.63
2018-12-06T11:11:38.043Z,10.07
2018-12-06T11:14:05.955Z,12.53
2018-12-06T11:16:33.815Z,3.70
2018-12-06T11:19:01.525Z,7.07
2018-12-06T11:21:34.235Z,10.13
2018-12-06T11:24:01.836Z,6.87
2018-12-06T11:26:57.746Z,22.10
2018-12-06T11:29:25.562Z,5.90
2018-12-06T11:31:53.460Z,4.37
2018-12-06T11:34:21.221Z,9.33
2018-12-06T11:36:49.008Z,6.33
2018-12-06T11:39:16.648Z,11.67
2018-12-06T11:41:45.554Z,7.33
2018-12-06T11:44:13.784Z,11.83
2018-12-06T11:46:43.292Z,19.77
2018-12-06T11:49:11.008Z,22.10
2018-12-06T12:20:31.307Z,4.60
2018-12-06T12:22:59.132Z,13.30
2018-12-06T12:25:26.890Z,10.17
2018-12-06T12:27:54.552Z,7.63
2018-12-06T12:30:22.699Z,8.83
2018-12-06T12:32:50.948Z,9.83
2018-12-06T12:35:19.104Z,4.00
2018-12-06T12:37:47.255Z,5.80
2018-12-06T12:40:15.319Z,3.93
2018-12-06T12:42:43.648Z,12.63
2018-12-06T12:45:14.067Z,15.00
2018-12-06T13:01:09.903Z,9.93
2018-12-06T13:06:22.210Z,11.20
2018-12-06T13:08:51.415Z,9.20
2018-12-06T13:11:20.955Z,5.83
2018-12-06T13:13:49.168Z,5.30
2018-12-06T13:16:17.814Z,11.27
2018-12-06T13:18:45.835Z,10.73
2018-12-06T13:21:13.912Z,16.70
2018-12-06T13:23:41.932Z,6.40
2018-12-06T13:26:10.130Z,5.10
2018-12-06T13:28:39.244Z,9.33
2018-12-06T13:31:07.528Z,13.27
2018-12-06T13:33:35.831Z,6.40
2018-12-06T13:36:04.140Z,8.20
2018-12-06T13:38:32.287Z,7.70
2018-12-06T13:41:00.415Z,7.70
2018-12-06T13:43:29.428Z,9.50
2018-12-06T13:45:57.679Z,5.43
2018-12-06T13:48:26.047Z,5.53
2018-12-06T13:50:54.258Z,6.33
2018-12-06T13:53:22.399Z,7.53
2018-12-06T13:55:50.632Z,5.13
2018-12-06T13:58:19.119Z,5.60
2018-12-06T14:00:48.031Z,6.00
2018-12-06T14:03:16.522Z,16.37
2018-12-06T14:05:44.621Z,5.47
2018-12-06T14:08:12.905Z,13.00
2018-12-06T14:10:41.024Z,17.20
2018-12-06T14:13:09.114Z,13.67
2018-12-06T14:15:37.269Z,9.20
2018-12-06T14:18:05.307Z,19.40
2018-12-06T14:20:33.453Z,5.73
2018-12-06T14:23:01.597Z,15.77
2018-12-06T14:25:29.817Z,12.13
2018-12-06T14:27:57.952Z,5.00
2018-12-06T14:30:26.113Z,13.53
2018-12-06T14:32:54.325Z,7.00
2018-12-06T14:35:23.122Z,6.50
2018-12-06T14:37:51.279Z,7.53
2018-12-06T14:40:19.408Z,9.93
2018-12-06T14:42:47.530Z,8.67
2018-12-06T14:45:15.639Z,7.33
2018-12-06T14:47:43.725Z,7.43
2018-12-06T14:50:11.398Z,13.57
2018-12-06T14:52:39.043Z,7.93
2018-12-06T14:55:06.672Z,9.07
2018-12-06T14:57:34.307Z,5.30
2018-12-06T15:00:03.378Z,14.53
2018-12-06T15:02:31.081Z,10.37
2018-12-06T15:04:58.733Z,5.23
2018-12-06T15:07:26.401Z,5.43
2018-12-06T15:09:54.009Z,12.23
2018-12-06T15:12:21.631Z,9.17
2018-12-06T15:14:49.314Z,3.80
2018-12-06T15:17:16.927Z,3.87
2018-12-06T15:19:44.540Z,12.20
2018-12-06T15:22:13.486Z,3.80
2018-12-06T15:24:41.388Z,5.77
2018-12-06T15:27:08.996Z,4.50
2018-12-06T15:29:36.620Z,5.67
2018-12-06T15:32:04.380Z,6.07
2018-12-06T15:34:32.073Z,3.90
2018-12-06T15:36:59.676Z,11.47
2018-12-06T15:39:27.304Z,5.53
2018-12-06T15:41:54.898Z,5.13
2018-12-06T15:44:22.662Z,6.33
2018-12-06T15:46:50.611Z,7.30
2018-12-06T15:49:18.489Z,4.10
2018-12-06T15:51:46.098Z,6.17
2018-12-06T15:54:13.692Z,4.33
2018-12-06T15:56:41.365Z,5.07
2018-12-06T15:59:09.036Z,5.00
2018-12-06T16:01:36.640Z,6.87
2018-12-06T16:04:04.256Z,7.80
2018-12-06T16:06:31.980Z,4.50
2018-12-06T16:08:59.668Z,5.23
2018-12-06T16:11:27.405Z,7.50
2018-12-06T16:13:55.011Z,6.30
2018-12-06T16:16:22.592Z,6.33
2018-12-06T16:18:50.190Z,2.90
2018-12-06T16:21:17.819Z,2.73
2018-12-06T16:23:45.577Z,7.40
2018-12-06T16:26:13.196Z,4.50
2018-12-06T16:28:40.832Z,14.43
2018-12-06T16:31:08.521Z,4.80
2018-12-06T16:33:36.123Z,7.23
2018-12-06T16:36:03.839Z,5.53
2018-12-06T16:38:31.503Z,4.00
2018-12-06T16:40:59.114Z,5.00
2018-12-06T16:43:26.751Z,5.17
2018-12-06T16:45:54.387Z,3.47
2018-12-06T16:48:22.072Z,11.30
2018-12-06T16:50:49.690Z,9.40
2018-12-06T16:53:17.335Z,9.50
2018-12-06T16:55:45.011Z,2.97
2018-12-06T16:58:12.631Z,3.27
2018-12-06T17:00:40.259Z,4.40
2018-12-06T17:03:08.036Z,3.20
2018-12-06T17:05:35.688Z,3.33
2018-12-06T17:08:03.437Z,3.73
2018-12-06T17:10:31.062Z,5.17
2018-12-06T17:12:58.633Z,5.13
2018-12-06T17:15:26.397Z,6.50
2018-12-06T17:17:54.018Z,7.93
2018-12-06T17:20:21.654Z,3.10
2018-12-06T17:22:49.465Z,6.63
2018-12-06T17:25:17.034Z,5.83
2018-12-06T17:27:44.627Z,8.80
2018-12-06T17:30:13.782Z,9.23
2018-12-06T17:32:41.722Z,8.90
2018-12-06T17:35:09.430Z,5.10
2018-12-06T17:37:37.065Z,14.53
2018-12-06T17:40:04.720Z,4.60
2018-12-06T17:42:32.309Z,6.13
2018-12-06T17:44:59.922Z,4.50
2018-12-06T17:47:27.541Z,6.67
2018-12-06T17:49:55.226Z,4.17
2018-12-06T17:52:22.899Z,3.20
2018-12-06T17:54:50.512Z,2.33
2018-12-06T17:57:18.156Z,4.73
2018-12-06T17:59:45.754Z,4.13
2018-12-06T18:02:13.365Z,3.67
2018-12-06T18:04:41.004Z,4.73
2018-12-06T18:07:09.874Z,4.73
2018-12-06T18:09:37.471Z,6.17
2018-12-06T18:12:05.228Z,4.10
2018-12-06T18:14:33.060Z,8.73
2018-12-06T18:17:00.671Z,5.20
2018-12-06T18:19:28.269Z,6.87
2018-12-06T18:21:56.029Z,8.80
2018-12-06T18:24:23.648Z,3.97
2018-12-06T18:26:51.333Z,8.87
2018-12-06T18:29:19.077Z,11.40
2018-12-06T18:31:46.697Z,5.93
2018-12-06T18:34:14.437Z,3.50
2018-12-06T18:36:42.222Z,8.97
2018-12-06T18:39:09.790Z,11.37
2018-12-06T18:41:37.440Z,3.73
2018-12-06T18:44:05.037Z,3.27
2018-12-06T18:46:32.701Z,18.80
2018-12-06T18:49:00.304Z,8.80
2018-12-06T18:51:27.910Z,6.20
2018-12-06T18:53:55.538Z,4.67
2018-12-06T18:56:23.406Z,9.43
2018-12-06T18:58:51.212Z,5.33
2018-12-06T19:01:18.804Z,6.63
2018-12-06T19:03:46.352Z,4.67
2018-12-06T19:06:14.332Z,6.03
2018-12-06T19:08:42.030Z,12.13
2018-12-06T19:11:09.749Z,3.90
2018-12-06T19:13:37.344Z,10.93
2018-12-06T19:16:05.094Z,13.23
2018-12-06T19:18:32.796Z,11.80
2018-12-06T19:21:00.439Z,22.13
2018-12-06T19:23:28.085Z,6.80
2018-12-06T19:25:55.824Z,9.97
2018-12-06T19:28:23.798Z,7.90
2018-12-06T19:30:51.532Z,4.90
2018-12-06T19:33:19.165Z,8.07
2018-12-06T19:35:46.750Z,8.77
2018-12-06T19:38:14.463Z,8.67
2018-12-06T19:40:42.090Z,8.03
2018-12-06T19:43:09.737Z,8.67
2018-12-06T19:45:37.380Z,6.13
2018-12-06T19:48:04.999Z,5.07
2018-12-06T19:50:32.617Z,9.53
2018-12-06T19:53:00.317Z,9.20
2018-12-06T19:55:27.930Z,5.63
2018-12-06T19:57:55.599Z,6.43
2018-12-06T20:00:23.204Z,6.53
2018-12-06T20:02:50.827Z,7.40
2018-12-06T20:05:18.468Z,5.03
2018-12-06T20:07:46.090Z,10.77
2018-12-06T20:10:13.757Z,16.80
2018-12-06T20:12:41.536Z,46.50
2018-12-06T20:15:09.174Z,174.10
2018-12-06T20:17:36.957Z,295.53
2018-12-06T20:20:05.828Z,257.67
2018-12-06T20:22:33.519Z,210.90
2018-12-06T20:25:01.163Z,261.07
2018-12-06T20:27:28.808Z,210.73
2018-12-06T20:29:56.538Z,221.07
2018-12-06T20:32:24.185Z,191.70
2018-12-06T20:34:51.867Z,194.83
2018-12-06T20:37:19.948Z,221.87
2018-12-06T20:39:47.627Z,193.00
2018-12-06T20:42:15.297Z,215.17
2018-12-06T20:44:43.023Z,187.43
2018-12-06T20:47:15.203Z,194.93
2018-12-06T20:49:42.829Z,182.90
2018-12-06T20:52:10.474Z,183.10
2018-12-06T20:54:38.195Z,179.87
2018-12-06T20:57:05.792Z,181.37
2018-12-06T20:59:33.517Z,191.67
2018-12-06T21:02:01.177Z,176.47
2018-12-06T21:04:28.864Z,165.97
2018-12-06T21:06:56.498Z,178.13
2018-12-06T21:09:24.177Z,179.17
2018-12-06T21:11:51.791Z,167.73
2018-12-06T21:14:22.265Z,179.73
2018-12-06T21:16:49.262Z,167.97
2018-12-06T21:19:16.915Z,169.03
2018-12-06T21:21:44.666Z,152.37
2018-12-06T21:24:12.318Z,168.53
2018-12-06T21:26:40.110Z,155.30
2018-12-06T21:29:07.746Z,164.07
2018-12-06T21:31:35.401Z,154.13
2018-12-06T21:34:03.182Z,158.97
2018-12-06T21:36:30.820Z,152.90
2018-12-06T21:38:58.460Z,149.23
2018-12-06T21:41:26.131Z,141.20
2018-12-06T21:43:53.831Z,152.93
2018-12-06T21:46:21.466Z,136.83
2018-12-06T21:48:49.161Z,142.83
2018-12-06T21:51:16.865Z,146.40
2018-12-06T21:53:44.620Z,131.07
2018-12-06T21:56:12.261Z,133.33
2018-12-06T21:58:39.936Z,140.80
2018-12-06T22:01:07.650Z,132.10
2018-12-06T22:03:35.300Z,127.57
2018-12-06T22:07:06.003Z,133.43
2018-12-06T22:09:33.650Z,136.00
2018-12-06T22:12:01.277Z,133.80
2018-12-06T22:14:29.136Z,120.33
2018-12-06T22:16:56.814Z,122.53
2018-12-06T22:19:24.449Z,111.97
2018-12-06T22:21:52.125Z,118.20
2018-12-06T22:24:19.839Z,120.93
2018-12-06T22:26:47.474Z,109.47
2018-12-06T22:29:15.135Z,113.23
2018-12-06T22:31:42.806Z,119.17
2018-12-06T22:34:10.422Z,117.90
2018-12-06T22:36:38.129Z,115.17
2018-12-06T22:39:06.844Z,113.07
2018-12-06T22:41:34.532Z,123.53
2018-12-06T22:44:02.237Z,108.60
2018-12-06T22:46:29.926Z,101.40
2018-12-06T22:48:57.608Z,117.40
2018-12-06T22:51:25.284Z,113.53
2018-12-06T22:53:52.877Z,104.03
2018-12-06T22:56:20.582Z,112.03
2018-12-06T22:58:48.131Z,100.37
2018-12-06T23:01:17.924Z,107.63
2018-12-06T23:03:45.581Z,102.17
2018-12-06T23:06:13.209Z,101.80
2018-12-06T23:08:40.899Z,100.63
2018-12-06T23:11:08.558Z,104.80
2018-12-06T23:13:36.251Z,108.10
2018-12-06T23:16:03.901Z,98.03
2018-12-06T23:18:31.607Z,108.17
2018-12-06T23:20:59.329Z,102.30
2018-12-06T23:23:26.976Z,99.07
2018-12-06T23:25:54.684Z,94.63
2018-12-06T23:28:22.318Z,108.13
2018-12-06T23:30:49.964Z,87.27
2018-12-06T23:33:17.681Z,87.63
2018-12-06T23:35:45.317Z,89.60
2018-12-06T23:38:12.961Z,84.73
2018-12-06T23:40:40.601Z,93.73
2018-12-06T23:43:08.363Z,83.07
2018-12-06T23:45:36.126Z,91.97
2018-12-06T23:48:03.747Z,82.23
2018-12-06T23:50:31.462Z,87.33
2018-12-06T23:52:59.119Z,98.97
2018-12-06T23:55:26.773Z,77.53
2018-12-06T23:57:54.602Z,79.40
